sensor_id;sensor_type;location;lat;lon;timestamp;P1;durP1;ratioP1;P2;durP2;ratioP2
64387;SDS011;50709;52.648;4.764;2023-06-14T00:01:11;10.85;;;3.80;;
64387;SDS011;50709;52.648;4.764;2023-06-14T00:03:38;7.55;;;3.80;;
64387;SDS011;50709;52.648;4.764;2023-06-14T00:06:04;6.15;;;3.80;;
64387;SDS011;50709;52.648;4.764;2023-06-14T00:08:29;7.40;;;3.85;;
64387;SDS011;50709;52.648;4.764;2023-06-14T00:10:55;8.10;;;3.50;;
64387;SDS011;50709;52.648;4.764;2023-06-14T00:13:20;5.55;;;3.60;;
64387;SDS011;50709;52.648;4.764;2023-06-14T00:15:46;5.63;;;3.40;;
64387;SDS011;50709;52.648;4.764;2023-06-14T00:18:12;5.70;;;3.70;;
64387;SDS011;50709;52.648;4.764;2023-06-14T00:20:38;9.00;;;3.90;;
64387;SDS011;50709;52.648;4.764;2023-06-14T00:23:04;5.15;;;3.45;;
64387;SDS011;50709;52.648;4.764;2023-06-14T00:25:30;5.35;;;3.38;;
64387;SDS011;50709;52.648;4.764;2023-06-14T00:27:55;5.55;;;3.80;;
64387;SDS011;50709;52.648;4.764;2023-06-14T00:30:22;6.90;;;3.30;;
64387;SDS011;50709;52.648;4.764;2023-06-14T00:32:48;5.82;;;3.35;;
64387;SDS011;50709;52.648;4.764;2023-06-14T00:35:13;7.50;;;3.63;;
64387;SDS011;50709;52.648;4.764;2023-06-14T00:37:39;7.70;;;3.75;;
64387;SDS011;50709;52.648;4.764;2023-06-14T00:40:05;7.60;;;3.40;;
64387;SDS011;50709;52.648;4.764;2023-06-14T00:42:31;9.70;;;3.90;;
64387;SDS011;50709;52.648;4.764;2023-06-14T00:44:57;4.88;;;3.15;;
64387;SDS011;50709;52.648;4.764;2023-06-14T00:47:22;5.55;;;3.80;;
64387;SDS011;50709;52.648;4.764;2023-06-14T00:49:51;6.25;;;3.70;;
64387;SDS011;50709;52.648;4.764;2023-06-14T00:52:18;5.22;;;2.90;;
64387;SDS011;50709;52.648;4.764;2023-06-14T00:54:44;8.52;;;3.45;;
64387;SDS011;50709;52.648;4.764;2023-06-14T00:57:10;8.68;;;3.65;;
64387;SDS011;50709;52.648;4.764;2023-06-14T00:59:37;4.70;;;3.50;;
64387;SDS011;50709;52.648;4.764;2023-06-14T01:02:12;5.63;;;3.28;;
64387;SDS011;50709;52.648;4.764;2023-06-14T01:04:40;5.68;;;3.33;;
64387;SDS011;50709;52.648;4.764;2023-06-14T01:12:15;5.93;;;3.35;;
64387;SDS011;50709;52.648;4.764;2023-06-14T01:15:04;5.47;;;3.67;;
64387;SDS011;50709;52.648;4.764;2023-06-14T01:17:31;9.93;;;3.42;;
64387;SDS011;50709;52.648;4.764;2023-06-14T01:19:58;6.88;;;3.60;;
64387;SDS011;50709;52.648;4.764;2023-06-14T01:22:26;7.30;;;3.60;;
64387;SDS011;50709;52.648;4.764;2023-06-14T01:24:52;5.38;;;3.10;;
64387;SDS011;50709;52.648;4.764;2023-06-14T01:27:21;9.05;;;3.10;;
64387;SDS011;50709;52.648;4.764;2023-06-14T01:29:49;6.25;;;3.10;;
64387;SDS011;50709;52.648;4.764;2023-06-14T01:32:17;5.97;;;3.42;;
64387;SDS011;50709;52.648;4.764;2023-06-14T01:34:43;5.55;;;3.13;;
64387;SDS011;50709;52.648;4.764;2023-06-14T01:37:10;7.20;;;3.63;;
64387;SDS011;50709;52.648;4.764;2023-06-14T01:39:36;7.53;;;3.30;;
64387;SDS011;50709;52.648;4.764;2023-06-14T01:42:02;7.40;;;3.75;;
64387;SDS011;50709;52.648;4.764;2023-06-14T01:44:29;4.70;;;3.25;;
64387;SDS011;50709;52.648;4.764;2023-06-14T01:46:56;4.43;;;3.20;;
64387;SDS011;50709;52.648;4.764;2023-06-14T01:49:22;8.32;;;3.47;;
64387;SDS011;50709;52.648;4.764;2023-06-14T01:51:48;7.93;;;3.80;;
64387;SDS011;50709;52.648;4.764;2023-06-14T01:54:13;5.55;;;3.35;;
64387;SDS011;50709;52.648;4.764;2023-06-14T01:56:38;6.47;;;3.22;;
64387;SDS011;50709;52.648;4.764;2023-06-14T01:59:04;5.18;;;3.15;;
64387;SDS011;50709;52.648;4.764;2023-06-14T02:01:29;7.05;;;3.20;;
64387;SDS011;50709;52.648;4.764;2023-06-14T02:03:55;7.00;;;3.10;;
64387;SDS011;50709;52.648;4.764;2023-06-14T02:06:21;8.40;;;3.95;;
64387;SDS011;50709;52.648;4.764;2023-06-14T02:08:46;5.38;;;3.20;;
64387;SDS011;50709;52.648;4.764;2023-06-14T02:11:12;4.55;;;3.03;;
64387;SDS011;50709;52.648;4.764;2023-06-14T02:13:37;7.22;;;3.22;;
64387;SDS011;50709;52.648;4.764;2023-06-14T02:16:03;5.68;;;3.15;;
64387;SDS011;50709;52.648;4.764;2023-06-14T02:18:28;6.10;;;3.30;;
64387;SDS011;50709;52.648;4.764;2023-06-14T02:20:54;4.57;;;3.03;;
64387;SDS011;50709;52.648;4.764;2023-06-14T02:23:19;5.38;;;3.00;;
64387;SDS011;50709;52.648;4.764;2023-06-14T02:25:45;6.70;;;3.47;;
64387;SDS011;50709;52.648;4.764;2023-06-14T02:28:11;6.93;;;3.20;;
64387;SDS011;50709;52.648;4.764;2023-06-14T02:30:37;5.60;;;3.05;;
64387;SDS011;50709;52.648;4.764;2023-06-14T02:33:02;6.15;;;3.22;;
64387;SDS011;50709;52.648;4.764;2023-06-14T02:35:28;5.90;;;3.00;;
64387;SDS011;50709;52.648;4.764;2023-06-14T02:37:53;5.05;;;3.08;;
64387;SDS011;50709;52.648;4.764;2023-06-14T02:40:19;5.93;;;3.25;;
64387;SDS011;50709;52.648;4.764;2023-06-14T02:42:45;6.68;;;3.40;;
64387;SDS011;50709;52.648;4.764;2023-06-14T02:45:11;4.75;;;3.35;;
64387;SDS011;50709;52.648;4.764;2023-06-14T02:47:36;7.63;;;3.20;;
64387;SDS011;50709;52.648;4.764;2023-06-14T02:50:01;5.25;;;2.97;;
64387;SDS011;50709;52.648;4.764;2023-06-14T02:52:28;6.97;;;3.10;;
64387;SDS011;50709;52.648;4.764;2023-06-14T02:54:53;7.80;;;3.42;;
64387;SDS011;50709;52.648;4.764;2023-06-14T02:57:19;6.85;;;3.50;;
64387;SDS011;50709;52.648;4.764;2023-06-14T02:59:45;4.97;;;3.00;;
64387;SDS011;50709;52.648;4.764;2023-06-14T03:02:11;5.13;;;3.28;;
64387;SDS011;50709;52.648;4.764;2023-06-14T03:04:36;5.60;;;2.95;;
64387;SDS011;50709;52.648;4.764;2023-06-14T03:07:05;8.73;;;3.70;;
64387;SDS011;50709;52.648;4.764;2023-06-14T03:09:37;4.53;;;3.13;;
64387;SDS011;50709;52.648;4.764;2023-06-14T03:12:03;5.57;;;2.95;;
64387;SDS011;50709;52.648;4.764;2023-06-14T03:14:29;5.43;;;3.28;;
64387;SDS011;50709;52.648;4.764;2023-06-14T03:16:55;5.25;;;3.20;;
64387;SDS011;50709;52.648;4.764;2023-06-14T03:19:22;4.93;;;3.13;;
64387;SDS011;50709;52.648;4.764;2023-06-14T03:21:48;4.63;;;3.00;;
64387;SDS011;50709;52.648;4.764;2023-06-14T03:24:14;5.32;;;3.10;;
64387;SDS011;50709;52.648;4.764;2023-06-14T03:26:41;5.22;;;3.60;;
64387;SDS011;50709;52.648;4.764;2023-06-14T03:29:07;5.88;;;3.47;;
64387;SDS011;50709;52.648;4.764;2023-06-14T03:31:33;6.13;;;3.22;;
64387;SDS011;50709;52.648;4.764;2023-06-14T03:34:00;5.57;;;3.40;;
64387;SDS011;50709;52.648;4.764;2023-06-14T03:36:26;6.85;;;3.28;;
64387;SDS011;50709;52.648;4.764;2023-06-14T03:38:52;5.60;;;3.25;;
64387;SDS011;50709;52.648;4.764;2023-06-14T03:41:18;6.55;;;3.35;;
64387;SDS011;50709;52.648;4.764;2023-06-14T03:43:44;5.60;;;3.65;;
64387;SDS011;50709;52.648;4.764;2023-06-14T03:46:09;4.93;;;3.10;;
64387;SDS011;50709;52.648;4.764;2023-06-14T03:48:35;8.55;;;3.60;;
64387;SDS011;50709;52.648;4.764;2023-06-14T03:51:00;4.18;;;3.00;;
64387;SDS011;50709;52.648;4.764;2023-06-14T03:53:26;5.72;;;3.17;;
64387;SDS011;50709;52.648;4.764;2023-06-14T03:55:53;5.10;;;3.20;;
64387;SDS011;50709;52.648;4.764;2023-06-14T03:58:19;5.88;;;3.28;;
64387;SDS011;50709;52.648;4.764;2023-06-14T04:00:44;7.55;;;3.20;;
64387;SDS011;50709;52.648;4.764;2023-06-14T04:03:10;4.93;;;3.30;;
64387;SDS011;50709;52.648;4.764;2023-06-14T04:05:38;6.18;;;3.30;;
64387;SDS011;50709;52.648;4.764;2023-06-14T04:08:07;5.05;;;3.10;;
64387;SDS011;50709;52.648;4.764;2023-06-14T04:10:33;4.75;;;3.00;;
64387;SDS011;50709;52.648;4.764;2023-06-14T04:12:59;5.45;;;3.20;;
64387;SDS011;50709;52.648;4.764;2023-06-14T04:15:25;5.68;;;2.97;;
64387;SDS011;50709;52.648;4.764;2023-06-14T04:17:53;5.55;;;3.20;;
64387;SDS011;50709;52.648;4.764;2023-06-14T04:20:22;5.43;;;3.10;;
64387;SDS011;50709;52.648;4.764;2023-06-14T04:22:49;4.45;;;2.97;;
64387;SDS011;50709;52.648;4.764;2023-06-14T04:25:14;5.93;;;3.10;;
64387;SDS011;50709;52.648;4.764;2023-06-14T04:27:40;7.80;;;3.13;;
64387;SDS011;50709;52.648;4.764;2023-06-14T04:30:07;5.07;;;3.03;;
64387;SDS011;50709;52.648;4.764;2023-06-14T04:32:33;6.28;;;3.08;;
64387;SDS011;50709;52.648;4.764;2023-06-14T04:34:59;6.63;;;3.55;;
64387;SDS011;50709;52.648;4.764;2023-06-14T04:37:27;5.57;;;3.50;;
64387;SDS011;50709;52.648;4.764;2023-06-14T04:39:54;6.10;;;3.72;;
64387;SDS011;50709;52.648;4.764;2023-06-14T04:42:20;4.78;;;3.00;;
64387;SDS011;50709;52.648;4.764;2023-06-14T04:44:50;4.65;;;3.25;;
64387;SDS011;50709;52.648;4.764;2023-06-14T04:47:16;4.70;;;3.25;;
64387;SDS011;50709;52.648;4.764;2023-06-14T04:49:42;7.25;;;3.20;;
64387;SDS011;50709;52.648;4.764;2023-06-14T04:52:08;5.65;;;2.92;;
64387;SDS011;50709;52.648;4.764;2023-06-14T04:54:35;5.50;;;3.38;;
64387;SDS011;50709;52.648;4.764;2023-06-14T04:57:06;6.97;;;3.25;;
64387;SDS011;50709;52.648;4.764;2023-06-14T04:59:31;6.53;;;3.20;;
64387;SDS011;50709;52.648;4.764;2023-06-14T05:02:01;6.88;;;3.20;;
64387;SDS011;50709;52.648;4.764;2023-06-14T05:04:27;6.70;;;3.00;;
64387;SDS011;50709;52.648;4.764;2023-06-14T05:06:53;4.90;;;3.35;;
64387;SDS011;50709;52.648;4.764;2023-06-14T05:09:19;4.75;;;3.05;;
64387;SDS011;50709;52.648;4.764;2023-06-14T05:11:46;5.45;;;2.78;;
64387;SDS011;50709;52.648;4.764;2023-06-14T05:14:12;5.47;;;2.90;;
64387;SDS011;50709;52.648;4.764;2023-06-14T05:16:38;6.30;;;3.33;;
64387;SDS011;50709;52.648;4.764;2023-06-14T05:19:04;12.23;;;5.53;;
64387;SDS011;50709;52.648;4.764;2023-06-14T05:21:30;15.48;;;6.47;;
64387;SDS011;50709;52.648;4.764;2023-06-14T05:23:58;22.70;;;8.95;;
64387;SDS011;50709;52.648;4.764;2023-06-14T05:26:24;15.95;;;6.45;;
64387;SDS011;50709;52.648;4.764;2023-06-14T05:28:53;9.70;;;5.10;;
64387;SDS011;50709;52.648;4.764;2023-06-14T05:31:21;10.43;;;4.82;;
64387;SDS011;50709;52.648;4.764;2023-06-14T05:33:47;7.82;;;4.38;;
64387;SDS011;50709;52.648;4.764;2023-06-14T05:36:13;10.85;;;4.28;;
64387;SDS011;50709;52.648;4.764;2023-06-14T05:38:38;8.68;;;4.00;;
64387;SDS011;50709;52.648;4.764;2023-06-14T05:41:04;10.43;;;4.28;;
64387;SDS011;50709;52.648;4.764;2023-06-14T05:43:29;9.52;;;4.18;;
64387;SDS011;50709;52.648;4.764;2023-06-14T05:45:55;7.30;;;3.50;;
64387;SDS011;50709;52.648;4.764;2023-06-14T05:48:20;8.07;;;4.28;;
64387;SDS011;50709;52.648;4.764;2023-06-14T05:50:46;8.65;;;4.20;;
64387;SDS011;50709;52.648;4.764;2023-06-14T05:53:33;7.85;;;3.80;;
64387;SDS011;50709;52.648;4.764;2023-06-14T05:55:59;6.15;;;3.75;;
64387;SDS011;50709;52.648;4.764;2023-06-14T05:58:25;8.95;;;4.10;;
64387;SDS011;50709;52.648;4.764;2023-06-14T06:00:50;7.43;;;3.60;;
64387;SDS011;50709;52.648;4.764;2023-06-14T06:03:19;6.78;;;3.85;;
64387;SDS011;50709;52.648;4.764;2023-06-14T06:05:46;6.60;;;3.90;;
64387;SDS011;50709;52.648;4.764;2023-06-14T06:08:11;7.47;;;4.20;;
64387;SDS011;50709;52.648;4.764;2023-06-14T06:10:36;8.38;;;3.75;;
64387;SDS011;50709;52.648;4.764;2023-06-14T06:13:02;6.65;;;3.72;;
64387;SDS011;50709;52.648;4.764;2023-06-14T06:15:29;6.57;;;3.80;;
64387;SDS011;50709;52.648;4.764;2023-06-14T06:17:54;8.25;;;3.50;;
64387;SDS011;50709;52.648;4.764;2023-06-14T06:20:20;9.27;;;4.28;;
64387;SDS011;50709;52.648;4.764;2023-06-14T06:22:46;7.13;;;4.20;;
64387;SDS011;50709;52.648;4.764;2023-06-14T06:25:12;6.13;;;4.07;;
64387;SDS011;50709;52.648;4.764;2023-06-14T06:27:38;6.43;;;3.78;;
64387;SDS011;50709;52.648;4.764;2023-06-14T06:30:23;6.03;;;3.85;;
64387;SDS011;50709;52.648;4.764;2023-06-14T06:32:51;8.05;;;3.95;;
64387;SDS011;50709;52.648;4.764;2023-06-14T06:35:17;8.98;;;4.10;;
64387;SDS011;50709;52.648;4.764;2023-06-14T06:37:43;5.32;;;4.05;;
64387;SDS011;50709;52.648;4.764;2023-06-14T06:40:08;7.30;;;4.07;;
64387;SDS011;50709;52.648;4.764;2023-06-14T06:42:35;9.65;;;3.90;;
64387;SDS011;50709;52.648;4.764;2023-06-14T06:45:00;5.55;;;4.07;;
64387;SDS011;50709;52.648;4.764;2023-06-14T06:47:26;8.73;;;4.13;;
64387;SDS011;50709;52.648;4.764;2023-06-14T06:49:52;6.05;;;3.90;;
64387;SDS011;50709;52.648;4.764;2023-06-14T06:52:18;5.07;;;3.78;;
64387;SDS011;50709;52.648;4.764;2023-06-14T06:54:43;5.60;;;4.28;;
64387;SDS011;50709;52.648;4.764;2023-06-14T06:57:09;5.65;;;3.80;;
64387;SDS011;50709;52.648;4.764;2023-06-14T06:59:35;6.78;;;4.35;;
64387;SDS011;50709;52.648;4.764;2023-06-14T07:02:01;7.65;;;3.90;;
64387;SDS011;50709;52.648;4.764;2023-06-14T07:04:26;6.65;;;4.15;;
64387;SDS011;50709;52.648;4.764;2023-06-14T07:06:53;8.95;;;4.00;;
64387;SDS011;50709;52.648;4.764;2023-06-14T07:09:39;6.63;;;4.00;;
64387;SDS011;50709;52.648;4.764;2023-06-14T07:12:08;9.05;;;4.15;;
64387;SDS011;50709;52.648;4.764;2023-06-14T07:14:34;8.23;;;4.63;;
64387;SDS011;50709;52.648;4.764;2023-06-14T07:17:20;6.00;;;4.63;;
64387;SDS011;50709;52.648;4.764;2023-06-14T07:19:51;8.93;;;4.32;;
64387;SDS011;50709;52.648;4.764;2023-06-14T07:22:18;6.90;;;4.20;;
64387;SDS011;50709;52.648;4.764;2023-06-14T07:24:44;6.78;;;3.92;;
64387;SDS011;50709;52.648;4.764;2023-06-14T07:27:09;6.10;;;4.40;;
64387;SDS011;50709;52.648;4.764;2023-06-14T07:29:35;8.20;;;4.30;;
64387;SDS011;50709;52.648;4.764;2023-06-14T07:32:02;5.82;;;4.40;;
64387;SDS011;50709;52.648;4.764;2023-06-14T07:34:28;6.22;;;4.28;;
64387;SDS011;50709;52.648;4.764;2023-06-14T07:36:54;8.30;;;4.55;;
64387;SDS011;50709;52.648;4.764;2023-06-14T07:39:19;7.72;;;4.68;;
64387;SDS011;50709;52.648;4.764;2023-06-14T07:41:45;6.38;;;4.47;;
64387;SDS011;50709;52.648;4.764;2023-06-14T07:44:30;7.20;;;4.38;;
64387;SDS011;50709;52.648;4.764;2023-06-14T07:46:57;6.25;;;4.55;;
64387;SDS011;50709;52.648;4.764;2023-06-14T07:49:24;5.65;;;3.97;;
64387;SDS011;50709;52.648;4.764;2023-06-14T07:51:50;9.73;;;4.65;;
64387;SDS011;50709;52.648;4.764;2023-06-14T07:54:18;8.40;;;4.57;;
64387;SDS011;50709;52.648;4.764;2023-06-14T07:56:49;7.63;;;4.63;;
64387;SDS011;50709;52.648;4.764;2023-06-14T07:59:18;5.80;;;4.40;;
64387;SDS011;50709;52.648;4.764;2023-06-14T08:01:43;6.63;;;4.72;;
64387;SDS011;50709;52.648;4.764;2023-06-14T08:04:12;7.65;;;4.78;;
64387;SDS011;50709;52.648;4.764;2023-06-14T08:06:38;7.65;;;4.43;;
64387;SDS011;50709;52.648;4.764;2023-06-14T08:09:04;9.23;;;4.68;;
64387;SDS011;50709;52.648;4.764;2023-06-14T08:11:31;7.15;;;4.72;;
64387;SDS011;50709;52.648;4.764;2023-06-14T08:13:56;7.22;;;4.47;;
64387;SDS011;50709;52.648;4.764;2023-06-14T08:16:22;9.25;;;4.70;;
64387;SDS011;50709;52.648;4.764;2023-06-14T08:18:48;7.03;;;4.65;;
64387;SDS011;50709;52.648;4.764;2023-06-14T08:21:13;8.60;;;4.60;;
64387;SDS011;50709;52.648;4.764;2023-06-14T08:23:40;9.57;;;4.60;;
64387;SDS011;50709;52.648;4.764;2023-06-14T08:26:08;6.75;;;4.57;;
64387;SDS011;50709;52.648;4.764;2023-06-14T08:28:33;8.35;;;4.05;;
64387;SDS011;50709;52.648;4.764;2023-06-14T08:30:59;10.10;;;4.70;;
64387;SDS011;50709;52.648;4.764;2023-06-14T08:33:25;6.68;;;4.15;;
64387;SDS011;50709;52.648;4.764;2023-06-14T08:35:50;6.85;;;4.30;;
64387;SDS011;50709;52.648;4.764;2023-06-14T08:38:16;7.38;;;4.85;;
64387;SDS011;50709;52.648;4.764;2023-06-14T08:40:41;7.25;;;4.43;;
64387;SDS011;50709;52.648;4.764;2023-06-14T08:43:07;6.53;;;5.00;;
64387;SDS011;50709;52.648;4.764;2023-06-14T08:45:32;11.63;;;4.93;;
64387;SDS011;50709;52.648;4.764;2023-06-14T08:47:58;8.65;;;4.38;;
64387;SDS011;50709;52.648;4.764;2023-06-14T08:50:25;7.60;;;4.90;;
64387;SDS011;50709;52.648;4.764;2023-06-14T08:52:53;9.32;;;4.43;;
64387;SDS011;50709;52.648;4.764;2023-06-14T08:55:19;6.32;;;4.13;;
64387;SDS011;50709;52.648;4.764;2023-06-14T08:57:51;7.38;;;4.10;;
64387;SDS011;50709;52.648;4.764;2023-06-14T09:00:19;7.88;;;4.20;;
64387;SDS011;50709;52.648;4.764;2023-06-14T09:02:45;6.07;;;4.22;;
64387;SDS011;50709;52.648;4.764;2023-06-14T09:05:11;6.30;;;4.13;;
64387;SDS011;50709;52.648;4.764;2023-06-14T09:07:43;6.85;;;4.13;;
64387;SDS011;50709;52.648;4.764;2023-06-14T09:10:10;8.15;;;4.50;;
64387;SDS011;50709;52.648;4.764;2023-06-14T09:12:37;6.47;;;4.13;;
64387;SDS011;50709;52.648;4.764;2023-06-14T09:15:03;9.18;;;4.18;;
64387;SDS011;50709;52.648;4.764;2023-06-14T09:17:34;6.00;;;3.92;;
64387;SDS011;50709;52.648;4.764;2023-06-14T09:20:01;10.57;;;4.40;;
64387;SDS011;50709;52.648;4.764;2023-06-14T09:22:34;6.00;;;3.80;;
64387;SDS011;50709;52.648;4.764;2023-06-14T09:25:00;6.50;;;4.05;;
64387;SDS011;50709;52.648;4.764;2023-06-14T09:27:26;4.65;;;3.55;;
64387;SDS011;50709;52.648;4.764;2023-06-14T09:29:52;7.57;;;3.78;;
64387;SDS011;50709;52.648;4.764;2023-06-14T09:32:20;5.97;;;3.80;;
64387;SDS011;50709;52.648;4.764;2023-06-14T09:34:46;6.00;;;3.38;;
64387;SDS011;50709;52.648;4.764;2023-06-14T09:37:12;6.15;;;3.72;;
64387;SDS011;50709;52.648;4.764;2023-06-14T09:39:50;5.43;;;3.50;;
64387;SDS011;50709;52.648;4.764;2023-06-14T09:42:16;8.07;;;4.13;;
64387;SDS011;50709;52.648;4.764;2023-06-14T09:44:46;7.30;;;3.53;;
64387;SDS011;50709;52.648;4.764;2023-06-14T09:47:32;8.07;;;3.40;;
64387;SDS011;50709;52.648;4.764;2023-06-14T09:49:58;8.02;;;3.17;;
64387;SDS011;50709;52.648;4.764;2023-06-14T09:52:25;5.85;;;3.70;;
64387;SDS011;50709;52.648;4.764;2023-06-14T09:54:52;4.53;;;3.20;;
64387;SDS011;50709;52.648;4.764;2023-06-14T09:57:23;7.65;;;3.60;;
64387;SDS011;50709;52.648;4.764;2023-06-14T10:00:12;7.10;;;3.22;;
64387;SDS011;50709;52.648;4.764;2023-06-14T10:03:00;4.68;;;3.20;;
64387;SDS011;50709;52.648;4.764;2023-06-14T10:05:50;4.40;;;3.20;;
64387;SDS011;50709;52.648;4.764;2023-06-14T10:08:36;4.43;;;3.25;;
64387;SDS011;50709;52.648;4.764;2023-06-14T10:11:03;5.22;;;3.58;;
64387;SDS011;50709;52.648;4.764;2023-06-14T10:13:31;4.80;;;3.30;;
64387;SDS011;50709;52.648;4.764;2023-06-14T10:16:09;3.90;;;2.92;;
64387;SDS011;50709;52.648;4.764;2023-06-14T10:18:51;3.83;;;2.83;;
64387;SDS011;50709;52.648;4.764;2023-06-14T10:21:46;5.10;;;2.92;;
64387;SDS011;50709;52.648;4.764;2023-06-14T10:24:14;6.25;;;3.15;;
64387;SDS011;50709;52.648;4.764;2023-06-14T10:26:54;4.22;;;2.78;;
64387;SDS011;50709;52.648;4.764;2023-06-14T10:29:22;5.93;;;3.03;;
64387;SDS011;50709;52.648;4.764;2023-06-14T10:31:48;5.63;;;3.55;;
64387;SDS011;50709;52.648;4.764;2023-06-14T10:34:27;6.47;;;3.13;;
64387;SDS011;50709;52.648;4.764;2023-06-14T10:39:31;7.13;;;3.50;;
64387;SDS011;50709;52.648;4.764;2023-06-14T10:42:08;4.80;;;3.13;;
64387;SDS011;50709;52.648;4.764;2023-06-14T10:44:38;7.82;;;3.60;;
64387;SDS011;50709;52.648;4.764;2023-06-14T10:47:23;4.15;;;3.08;;
64387;SDS011;50709;52.648;4.764;2023-06-14T10:49:52;6.15;;;3.38;;
64387;SDS011;50709;52.648;4.764;2023-06-14T10:52:26;5.88;;;2.90;;
64387;SDS011;50709;52.648;4.764;2023-06-14T10:57:44;6.97;;;3.03;;
64387;SDS011;50709;52.648;4.764;2023-06-14T11:00:11;7.43;;;3.20;;
64387;SDS011;50709;52.648;4.764;2023-06-14T11:05:31;4.30;;;3.00;;
64387;SDS011;50709;52.648;4.764;2023-06-14T11:11:09;3.58;;;2.58;;
64387;SDS011;50709;52.648;4.764;2023-06-14T11:13:38;4.32;;;3.08;;
64387;SDS011;50709;52.648;4.764;2023-06-14T11:16:15;5.60;;;2.90;;
64387;SDS011;50709;52.648;4.764;2023-06-14T11:18:42;5.57;;;3.03;;
64387;SDS011;50709;52.648;4.764;2023-06-14T11:21:07;6.18;;;3.20;;
64387;SDS011;50709;52.648;4.764;2023-06-14T11:23:37;4.88;;;2.80;;
64387;SDS011;50709;52.648;4.764;2023-06-14T11:26:05;4.03;;;2.95;;
64387;SDS011;50709;52.648;4.764;2023-06-14T11:28:37;4.45;;;2.70;;
64387;SDS011;50709;52.648;4.764;2023-06-14T11:31:26;5.03;;;2.65;;
64387;SDS011;50709;52.648;4.764;2023-06-14T11:33:54;5.28;;;2.90;;
64387;SDS011;50709;52.648;4.764;2023-06-14T11:36:30;6.68;;;2.78;;
64387;SDS011;50709;52.648;4.764;2023-06-14T11:39:16;4.70;;;2.65;;
64387;SDS011;50709;52.648;4.764;2023-06-14T11:41:42;5.47;;;2.55;;
64387;SDS011;50709;52.648;4.764;2023-06-14T11:44:09;4.47;;;2.90;;
64387;SDS011;50709;52.648;4.764;2023-06-14T11:46:35;4.03;;;2.70;;
64387;SDS011;50709;52.648;4.764;2023-06-14T11:49:01;4.82;;;2.65;;
64387;SDS011;50709;52.648;4.764;2023-06-14T11:51:35;4.93;;;2.70;;
64387;SDS011;50709;52.648;4.764;2023-06-14T11:54:01;6.75;;;3.22;;
64387;SDS011;50709;52.648;4.764;2023-06-14T11:56:47;4.18;;;2.90;;
64387;SDS011;50709;52.648;4.764;2023-06-14T11:59:14;4.43;;;2.97;;
64387;SDS011;50709;52.648;4.764;2023-06-14T12:01:42;4.65;;;3.03;;
64387;SDS011;50709;52.648;4.764;2023-06-14T12:04:08;4.32;;;2.70;;
64387;SDS011;50709;52.648;4.764;2023-06-14T12:06:33;4.78;;;2.80;;
64387;SDS011;50709;52.648;4.764;2023-06-14T12:09:03;5.47;;;2.85;;
64387;SDS011;50709;52.648;4.764;2023-06-14T12:11:51;4.63;;;2.92;;
64387;SDS011;50709;52.648;4.764;2023-06-14T12:14:29;8.48;;;3.35;;
64387;SDS011;50709;52.648;4.764;2023-06-14T12:17:06;6.50;;;3.20;;
64387;SDS011;50709;52.648;4.764;2023-06-14T12:19:32;4.78;;;2.80;;
64387;SDS011;50709;52.648;4.764;2023-06-14T12:22:03;5.07;;;3.00;;
64387;SDS011;50709;52.648;4.764;2023-06-14T12:24:30;5.63;;;2.92;;
64387;SDS011;50709;52.648;4.764;2023-06-14T12:26:58;9.30;;;3.15;;
64387;SDS011;50709;52.648;4.764;2023-06-14T12:31:58;4.72;;;3.10;;
64387;SDS011;50709;52.648;4.764;2023-06-14T12:34:44;4.60;;;2.72;;
64387;SDS011;50709;52.648;4.764;2023-06-14T12:37:10;5.13;;;2.90;;
64387;SDS011;50709;52.648;4.764;2023-06-14T12:39:35;4.10;;;3.10;;
64387;SDS011;50709;52.648;4.764;2023-06-14T12:42:20;4.47;;;3.10;;
64387;SDS011;50709;52.648;4.764;2023-06-14T12:45:06;5.00;;;2.80;;
64387;SDS011;50709;52.648;4.764;2023-06-14T12:47:33;4.28;;;2.67;;
64387;SDS011;50709;52.648;4.764;2023-06-14T12:49:58;6.13;;;3.00;;
64387;SDS011;50709;52.648;4.764;2023-06-14T12:52:24;4.88;;;2.88;;
64387;SDS011;50709;52.648;4.764;2023-06-14T12:55:09;7.97;;;2.75;;
64387;SDS011;50709;52.648;4.764;2023-06-14T12:57:35;4.50;;;2.80;;
64387;SDS011;50709;52.648;4.764;2023-06-14T13:00:02;6.53;;;3.10;;
64387;SDS011;50709;52.648;4.764;2023-06-14T13:02:28;4.28;;;2.80;;
64387;SDS011;50709;52.648;4.764;2023-06-14T13:04:55;4.47;;;2.75;;
64387;SDS011;50709;52.648;4.764;2023-06-14T13:07:23;3.90;;;2.80;;
64387;SDS011;50709;52.648;4.764;2023-06-14T13:09:48;5.88;;;2.95;;
64387;SDS011;50709;52.648;4.764;2023-06-14T13:12:15;5.20;;;2.85;;
64387;SDS011;50709;52.648;4.764;2023-06-14T13:14:42;5.30;;;3.00;;
64387;SDS011;50709;52.648;4.764;2023-06-14T13:17:28;4.00;;;2.47;;
64387;SDS011;50709;52.648;4.764;2023-06-14T13:19:54;5.47;;;3.00;;
64387;SDS011;50709;52.648;4.764;2023-06-14T13:22:19;3.53;;;2.38;;
64387;SDS011;50709;52.648;4.764;2023-06-14T13:24:46;6.07;;;3.10;;
64387;SDS011;50709;52.648;4.764;2023-06-14T13:27:12;9.00;;;3.53;;
64387;SDS011;50709;52.648;4.764;2023-06-14T13:29:39;5.18;;;3.83;;
64387;SDS011;50709;52.648;4.764;2023-06-14T13:32:05;6.25;;;3.10;;
64387;SDS011;50709;52.648;4.764;2023-06-14T13:34:32;6.47;;;3.05;;
64387;SDS011;50709;52.648;4.764;2023-06-14T13:36:58;4.32;;;3.00;;
64387;SDS011;50709;52.648;4.764;2023-06-14T13:39:26;4.18;;;2.90;;
64387;SDS011;50709;52.648;4.764;2023-06-14T13:41:51;5.57;;;2.75;;
64387;SDS011;50709;52.648;4.764;2023-06-14T13:44:17;3.95;;;2.95;;
64387;SDS011;50709;52.648;4.764;2023-06-14T13:46:55;4.32;;;2.47;;
64387;SDS011;50709;52.648;4.764;2023-06-14T13:49:33;4.47;;;2.60;;
64387;SDS011;50709;52.648;4.764;2023-06-14T13:52:00;4.22;;;2.92;;
64387;SDS011;50709;52.648;4.764;2023-06-14T13:54:28;6.22;;;2.75;;
64387;SDS011;50709;52.648;4.764;2023-06-14T13:56:57;4.95;;;2.92;;
64387;SDS011;50709;52.648;4.764;2023-06-14T13:59:23;4.13;;;2.85;;
64387;SDS011;50709;52.648;4.764;2023-06-14T14:01:48;4.38;;;2.70;;
64387;SDS011;50709;52.648;4.764;2023-06-14T14:04:13;6.45;;;2.70;;
64387;SDS011;50709;52.648;4.764;2023-06-14T14:06:39;4.85;;;2.60;;
64387;SDS011;50709;52.648;4.764;2023-06-14T14:09:07;3.80;;;2.55;;
64387;SDS011;50709;52.648;4.764;2023-06-14T14:11:33;4.22;;;2.58;;
64387;SDS011;50709;52.648;4.764;2023-06-14T14:13:58;6.53;;;2.67;;
64387;SDS011;50709;52.648;4.764;2023-06-14T14:16:44;6.60;;;2.92;;
64387;SDS011;50709;52.648;4.764;2023-06-14T14:19:09;3.72;;;2.70;;
64387;SDS011;50709;52.648;4.764;2023-06-14T14:21:35;4.22;;;2.90;;
64387;SDS011;50709;52.648;4.764;2023-06-14T14:24:00;5.07;;;3.10;;
64387;SDS011;50709;52.648;4.764;2023-06-14T14:26:26;4.75;;;3.10;;
64387;SDS011;50709;52.648;4.764;2023-06-14T14:28:52;3.80;;;2.60;;
64387;SDS011;50709;52.648;4.764;2023-06-14T14:31:18;6.38;;;2.58;;
64387;SDS011;50709;52.648;4.764;2023-06-14T14:33:43;5.53;;;2.50;;
64387;SDS011;50709;52.648;4.764;2023-06-14T14:36:29;5.50;;;2.60;;
64387;SDS011;50709;52.648;4.764;2023-06-14T14:38:54;6.18;;;3.00;;
64387;SDS011;50709;52.648;4.764;2023-06-14T14:41:19;5.30;;;2.63;;
64387;SDS011;50709;52.648;4.764;2023-06-14T14:43:45;3.88;;;2.70;;
64387;SDS011;50709;52.648;4.764;2023-06-14T14:46:10;4.88;;;3.22;;
64387;SDS011;50709;52.648;4.764;2023-06-14T14:48:38;4.07;;;2.80;;
64387;SDS011;50709;52.648;4.764;2023-06-14T14:51:03;5.45;;;2.70;;
64387;SDS011;50709;52.648;4.764;2023-06-14T14:53:29;4.80;;;2.90;;
64387;SDS011;50709;52.648;4.764;2023-06-14T14:55:55;4.43;;;2.70;;
64387;SDS011;50709;52.648;4.764;2023-06-14T14:58:20;4.97;;;2.92;;
64387;SDS011;50709;52.648;4.764;2023-06-14T15:00:46;3.85;;;2.60;;
64387;SDS011;50709;52.648;4.764;2023-06-14T15:03:12;5.55;;;2.50;;
64387;SDS011;50709;52.648;4.764;2023-06-14T15:05:38;4.53;;;2.90;;
64387;SDS011;50709;52.648;4.764;2023-06-14T15:08:06;4.00;;;2.85;;
64387;SDS011;50709;52.648;4.764;2023-06-14T15:10:44;3.72;;;2.63;;
64387;SDS011;50709;52.648;4.764;2023-06-14T15:13:10;4.65;;;2.88;;